Time;durP1;ratioP1;P1;durP2;ratioP2;P2;SDS_P1;SDS_P2;PMS_P1;PMS_P2;Temp;Humidity;BMP_temperature;BMP_pressure;BME280_temperature;BME280_humidity;BME280_pressure;Samples;Min_cycle;Max_cycle;Signal;HPM_P1;HPM_P2
2023/05/11 00:01:07;;;;;;;5.10;3.28;;;;;;;;;;4995613;28;20472;-66
2023/05/11 00:03:32;;;;;;;3.63;3.30;;;;;;;;;;5013203;28;20030;-65
2023/05/11 00:05:58;;;;;;;3.72;3.42;;;;;;;;;;5012872;28;20033;-65
2023/05/11 00:08:23;;;;;;;4.57;3.33;;;;;;;;;;5013577;28;20100;-65
2023/05/11 00:10:49;;;;;;;4.85;3.40;;;;;;;;;;5013429;28;20038;-65
2023/05/11 00:13:15;;;;;;;4.00;3.55;;;;;;;;;;5012992;28;20444;-65
2023/05/11 00:15:40;;;;;;;4.43;3.35;;;;;;;;;;5013385;28;20377;-65
2023/05/11 00:18:05;;;;;;;5.00;3.42;;;;;;;;;;4997165;28;20101;-64
2023/05/11 00:20:31;;;;;;;5.03;3.55;;;;;;;;;;4996926;28;20365;-64
2023/05/11 00:22:56;;;;;;;4.03;3.38;;;;;;;;;;5014738;28;20105;-64
2023/05/11 00:25:21;;;;;;;3.67;3.22;;;;;;;;;;5014741;28;20392;-65
2023/05/11 00:27:47;;;;;;;5.25;3.70;;;;;;;;;;5014944;28;20029;-65
2023/05/11 00:30:13;;;;;;;4.47;3.70;;;;;;;;;;5014353;28;20036;-64
2023/05/11 00:32:39;;;;;;;6.20;3.50;;;;;;;;;;5014940;28;20040;-68
2023/05/11 00:35:05;;;;;;;4.97;3.75;;;;;;;;;;4996877;28;20487;-68
2023/05/11 00:37:30;;;;;;;6.43;3.33;;;;;;;;;;5012857;28;20033;-67
2023/05/11 00:39:56;;;;;;;3.30;3.00;;;;;;;;;;5012769;28;20042;-67
2023/05/11 00:42:21;;;;;;;3.83;3.53;;;;;;;;;;4995267;28;20037;-66
2023/05/11 00:44:46;;;;;;;5.75;3.42;;;;;;;;;;4995489;28;20112;-65
2023/05/11 00:47:12;;;;;;;4.05;3.33;;;;;;;;;;4995440;28;20112;-65
2023/05/11 00:49:37;;;;;;;5.57;3.63;;;;;;;;;;5013186;28;20037;-66
2023/05/11 00:52:03;;;;;;;4.22;3.40;;;;;;;;;;4994818;28;20034;-66
2023/05/11 00:54:29;;;;;;;5.68;3.22;;;;;;;;;;4978708;28;20049;-66
2023/05/11 00:56:55;;;;;;;4.47;3.70;;;;;;;;;;4994807;28;20038;-66
2023/05/11 00:59:20;;;;;;;5.38;3.53;;;;;;;;;;5012703;28;20029;-66
2023/05/11 01:01:46;;;;;;;3.95;3.65;;;;;;;;;;4994939;28;20018;-66
2023/05/11 01:04:11;;;;;;;4.85;3.35;;;;;;;;;;5012853;28;20010;-66
2023/05/11 01:06:45;;;;;;;4.93;3.83;;;;;;;;;;5012626;28;20113;-66
2023/05/11 01:09:17;;;;;;;3.30;3.00;;;;;;;;;;4996534;28;20029;-66
2023/05/11 01:11:43;;;;;;;3.67;3.30;;;;;;;;;;4995130;28;20065;-66
2023/05/11 01:14:15;;;;;;;3.90;3.40;;;;;;;;;;4994880;28;20033;-66
2023/05/11 01:16:43;;;;;;;4.53;3.28;;;;;;;;;;4977938;28;20033;-66
2023/05/11 01:19:18;;;;;;;5.10;3.58;;;;;;;;;;4994884;28;20053;-67
2023/05/11 01:21:46;;;;;;;3.28;3.05;;;;;;;;;;4994720;28;20061;-67
2023/05/11 01:24:12;;;;;;;5.38;3.38;;;;;;;;;;5012115;28;20030;-67
2023/05/11 01:26:56;;;;;;;3.70;3.30;;;;;;;;;;4994455;28;20117;-66
2023/05/11 01:29:21;;;;;;;4.43;3.25;;;;;;;;;;5012356;28;20124;-66
2023/05/11 01:31:47;;;;;;;3.60;3.05;;;;;;;;;;4994503;28;20108;-66
2023/05/11 01:34:17;;;;;;;5.65;3.45;;;;;;;;;;4994808;28;20484;-65
2023/05/11 01:36:51;;;;;;;6.68;3.40;;;;;;;;;;4994116;28;20030;-66
2023/05/11 01:39:19;;;;;;;4.57;3.20;;;;;;;;;;5012152;28;20049;-65
2023/05/11 01:41:47;;;;;;;3.38;3.08;;;;;;;;;;4994657;28;20033;-67
2023/05/11 01:44:14;;;;;;;3.50;3.20;;;;;;;;;;5011675;28;20061;-65
2023/05/11 01:46:39;;;;;;;3.50;3.20;;;;;;;;;;5012069;28;20024;-65
2023/05/11 01:49:06;;;;;;;3.28;2.97;;;;;;;;;;4995329;28;20482;-65
2023/05/11 01:51:33;;;;;;;5.07;3.75;;;;;;;;;;5013688;28;20104;-64
2023/05/11 01:53:59;;;;;;;3.63;3.33;;;;;;;;;;5013014;28;20049;-64
2023/05/11 01:56:25;;;;;;;3.35;3.05;;;;;;;;;;4995512;28;20030;-65
2023/05/11 01:58:51;;;;;;;6.00;3.10;;;;;;;;;;5013552;28;20073;-65
2023/05/11 02:01:17;;;;;;;4.45;3.38;;;;;;;;;;5012994;28;20030;-65
2023/05/11 02:03:44;;;;;;;4.50;3.03;;;;;;;;;;5013701;28;20029;-65
2023/05/11 02:06:10;;;;;;;5.13;3.50;;;;;;;;;;5015863;28;20464;-66
2023/05/11 02:08:37;;;;;;;6.55;3.20;;;;;;;;;;4999280;28;20041;-65
2023/05/11 02:11:03;;;;;;;3.83;3.17;;;;;;;;;;4999057;28;20096;-66
2023/05/11 02:13:29;;;;;;;4.15;3.15;;;;;;;;;;4999120;28;20472;-65
2023/05/11 02:15:55;;;;;;;5.95;3.78;;;;;;;;;;5016321;28;20068;-65
2023/05/11 02:18:21;;;;;;;4.18;3.17;;;;;;;;;;4997490;28;20068;-59
2023/05/11 02:20:55;;;;;;;3.63;3.33;;;;;;;;;;4999251;28;20489;-60
2023/05/11 02:23:21;;;;;;;3.83;3.42;;;;;;;;;;5015696;28;20022;-59
2023/05/11 02:25:47;;;;;;;3.80;3.35;;;;;;;;;;5015628;28;20100;-59
2023/05/11 02:28:12;;;;;;;3.90;3.05;;;;;;;;;;5015607;28;20041;-59
2023/05/11 02:30:40;;;;;;;6.50;3.75;;;;;;;;;;5015364;28;20034;-59
2023/05/11 02:33:07;;;;;;;3.83;3.05;;;;;;;;;;5015485;28;20038;-59
2023/05/11 02:35:36;;;;;;;7.20;3.28;;;;;;;;;;4997814;28;20491;-59
2023/05/11 02:38:03;;;;;;;4.38;3.35;;;;;;;;;;4998121;28;20073;-60
2023/05/11 02:40:32;;;;;;;3.97;3.25;;;;;;;;;;4997456;28;20049;-60
2023/05/11 02:43:01;;;;;;;4.50;3.67;;;;;;;;;;4997681;28;20036;-60
2023/05/11 02:45:31;;;;;;;3.53;3.22;;;;;;;;;;5015342;28;20358;-59
2023/05/11 02:47:57;;;;;;;4.72;3.20;;;;;;;;;;4997633;28;20077;-59
2023/05/11 02:50:27;;;;;;;4.15;3.55;;;;;;;;;;4998850;28;20048;-59
2023/05/11 02:52:54;;;;;;;5.72;3.55;;;;;;;;;;4998696;28;20117;-59
2023/05/11 02:55:21;;;;;;;6.60;3.33;;;;;;;;;;4998699;28;20434;-61
2023/05/11 02:57:46;;;;;;;7.05;3.35;;;;;;;;;;4998954;28;20045;-61
2023/05/11 03:00:12;;;;;;;4.38;3.30;;;;;;;;;;4999269;28;20053;-61
2023/05/11 03:02:38;;;;;;;8.02;3.30;;;;;;;;;;5003666;28;20858;-59
2023/05/11 03:05:05;;;;;;;5.28;3.45;;;;;;;;;;5007671;28;20021;-59
2023/05/11 03:07:31;;;;;;;6.45;3.58;;;;;;;;;;5004903;28;20047;-59
2023/05/11 03:09:57;;;;;;;5.40;3.60;;;;;;;;;;5009457;28;20041;-59
2023/05/11 03:12:22;;;;;;;5.32;3.17;;;;;;;;;;5022651;28;20018;-67
2023/05/11 03:14:50;;;;;;;5.15;3.65;;;;;;;;;;5005274;28;20061;-67
2023/05/11 03:17:16;;;;;;;5.28;3.33;;;;;;;;;;5023039;28;20025;-67
2023/05/11 03:19:42;;;;;;;4.18;3.20;;;;;;;;;;5007106;28;20018;-67
2023/05/11 03:22:09;;;;;;;5.72;3.58;;;;;;;;;;5001882;28;20464;-65
2023/05/11 03:24:34;;;;;;;4.97;3.45;;;;;;;;;;5007396;28;20041;-64
2023/05/11 03:27:00;;;;;;;5.03;3.30;;;;;;;;;;5023949;28;20484;-65
2023/05/11 03:29:27;;;;;;;5.63;3.65;;;;;;;;;;5022729;28;20022;-65
2023/05/11 03:31:53;;;;;;;4.57;3.40;;;;;;;;;;5006424;28;20029;-67
2023/05/11 03:34:19;;;;;;;4.65;3.17;;;;;;;;;;4990275;28;20025;-67
2023/05/11 03:36:48;;;;;;;5.35;3.78;;;;;;;;;;5004776;28;20026;-68
2023/05/11 03:39:14;;;;;;;6.25;3.53;;;;;;;;;;5004240;28;20065;-67
2023/05/11 03:41:40;;;;;;;4.03;3.50;;;;;;;;;;4987978;28;20021;-67
2023/05/11 03:44:07;;;;;;;6.05;3.60;;;;;;;;;;5003185;28;20495;-67
2023/05/11 03:46:35;;;;;;;3.88;3.30;;;;;;;;;;5002901;28;20021;-67
2023/05/11 03:49:00;;;;;;;4.55;3.38;;;;;;;;;;5003915;28;20104;-66
2023/05/11 03:51:28;;;;;;;4.18;3.78;;;;;;;;;;4987586;28;20568;-66
2023/05/11 03:53:54;;;;;;;6.10;3.83;;;;;;;;;;5003667;28;20100;-66
2023/05/11 03:56:20;;;;;;;7.82;3.85;;;;;;;;;;5003406;28;20496;-66
2023/05/11 03:58:46;;;;;;;6.43;3.75;;;;;;;;;;5013232;28;20065;-66
2023/05/11 04:01:11;;;;;;;5.40;3.60;;;;;;;;;;5012579;28;20022;-66
2023/05/11 04:03:47;;;;;;;4.13;3.50;;;;;;;;;;5013466;28;20026;-65
2023/05/11 04:06:13;;;;;;;4.55;3.85;;;;;;;;;;5009225;28;20030;-66
2023/05/11 04:08:38;;;;;;;3.58;3.35;;;;;;;;;;4995557;28;20071;-60
2023/05/11 04:11:04;;;;;;;6.55;3.60;;;;;;;;;;5013135;28;20112;-61
2023/05/11 04:13:30;;;;;;;4.57;3.65;;;;;;;;;;5012588;28;20168;-65
2023/05/11 04:15:55;;;;;;;4.70;3.47;;;;;;;;;;5012637;28;20030;-66
2023/05/11 04:18:20;;;;;;;6.85;3.55;;;;;;;;;;5008583;28;20034;-66
2023/05/11 04:20:45;;;;;;;5.80;4.00;;;;;;;;;;4996838;28;20034;-66
2023/05/11 04:23:11;;;;;;;4.72;3.55;;;;;;;;;;5014895;28;20037;-65
2023/05/11 04:25:36;;;;;;;6.68;3.78;;;;;;;;;;4996150;28;20021;-65
2023/05/11 04:28:01;;;;;;;5.53;3.80;;;;;;;;;;5014371;28;20029;-66
2023/05/11 04:30:27;;;;;;;5.22;3.72;;;;;;;;;;4996264;28;20121;-66
2023/05/11 04:32:52;;;;;;;8.05;4.05;;;;;;;;;;5014329;28;20041;-65
2023/05/11 04:35:18;;;;;;;4.50;3.42;;;;;;;;;;5014786;28;20034;-65
2023/05/11 04:37:44;;;;;;;4.72;3.70;;;;;;;;;;4995109;28;20034;-65
2023/05/11 04:40:11;;;;;;;4.38;3.85;;;;;;;;;;5014360;28;20041;-65
2023/05/11 04:42:39;;;;;;;7.35;4.10;;;;;;;;;;4980974;28;20030;-65
2023/05/11 04:45:08;;;;;;;6.63;4.30;;;;;;;;;;4996537;28;20037;-65
2023/05/11 04:47:33;;;;;;;6.72;4.20;;;;;;;;;;4997198;28;20503;-65
2023/05/11 04:49:59;;;;;;;9.05;5.75;;;;;;;;;;4997301;28;20346;-64
2023/05/11 04:52:24;;;;;;;9.80;5.55;;;;;;;;;;4996521;28;20061;-64
2023/05/11 04:54:50;;;;;;;8.73;4.53;;;;;;;;;;4995960;28;20051;-64
2023/05/11 04:57:15;;;;;;;7.15;4.75;;;;;;;;;;4995581;28;20069;-65
2023/05/11 04:59:41;;;;;;;8.15;4.85;;;;;;;;;;4996572;28;20049;-65
2023/05/11 05:02:06;;;;;;;4.82;4.15;;;;;;;;;;4996595;28;20048;-64
2023/05/11 05:04:31;;;;;;;10.80;4.63;;;;;;;;;;4996564;28;20083;-64
2023/05/11 05:06:58;;;;;;;5.68;4.20;;;;;;;;;;5014161;28;20065;-64
2023/05/11 05:09:24;;;;;;;11.43;5.63;;;;;;;;;;4996412;28;20065;-65
2023/05/11 05:11:49;;;;;;;7.88;5.32;;;;;;;;;;5014524;28;20029;-65
2023/05/11 05:14:15;;;;;;;6.30;4.30;;;;;;;;;;4980430;28;20117;-64
2023/05/11 05:16:40;;;;;;;6.85;4.57;;;;;;;;;;5014223;28;20033;-65
2023/05/11 05:19:08;;;;;;;6.18;4.63;;;;;;;;;;4996308;28;20552;-66
2023/05/11 05:21:34;;;;;;;7.18;4.68;;;;;;;;;;4996319;28;20026;-64
2023/05/11 05:24:00;;;;;;;5.18;4.68;;;;;;;;;;4980288;28;20022;-64
2023/05/11 05:26:26;;;;;;;7.20;4.93;;;;;;;;;;4996465;28;20026;-64
2023/05/11 05:28:51;;;;;;;5.43;4.03;;;;;;;;;;4996397;28;20025;-65
2023/05/11 05:31:18;;;;;;;6.25;4.57;;;;;;;;;;4996375;28;20411;-64
2023/05/11 05:33:44;;;;;;;7.13;4.43;;;;;;;;;;5013899;28;20037;-65
2023/05/11 05:36:09;;;;;;;8.18;5.00;;;;;;;;;;5013556;28;20026;-64
2023/05/11 05:38:35;;;;;;;7.22;4.28;;;;;;;;;;5012716;28;20402;-65
2023/05/11 05:41:01;;;;;;;5.82;4.47;;;;;;;;;;5006398;28;20034;-57
2023/05/11 05:43:30;;;;;;;18.35;6.15;;;;;;;;;;4998690;28;20072;-57
2023/05/11 05:45:56;;;;;;;6.60;4.82;;;;;;;;;;4999175;28;20076;-57
2023/05/11 05:48:22;;;;;;;3.78;3.33;;;;;;;;;;4999853;28;20026;-57
2023/05/11 05:50:48;;;;;;;9.73;5.03;;;;;;;;;;5015685;28;20040;-57
2023/05/11 05:53:14;;;;;;;5.40;3.70;;;;;;;;;;5000000;28;20021;-64
2023/05/11 05:55:40;;;;;;;12.38;5.45;;;;;;;;;;5016207;28;20056;-64
2023/05/11 05:58:05;;;;;;;4.47;3.70;;;;;;;;;;5015943;28;20030;-64
2023/05/11 06:00:30;;;;;;;4.57;3.58;;;;;;;;;;4995961;28;20029;-65
2023/05/11 06:03:02;;;;;;;4.72;3.63;;;;;;;;;;4996168;28;20022;-65
2023/05/11 06:05:27;;;;;;;6.45;3.65;;;;;;;;;;4996653;28;20045;-64
2023/05/11 06:07:53;;;;;;;3.47;3.15;;;;;;;;;;5013145;28;20088;-64
2023/05/11 06:10:18;;;;;;;5.25;2.97;;;;;;;;;;4997978;28;20460;-65
2023/05/11 06:12:45;;;;;;;5.63;3.50;;;;;;;;;;5015695;28;20026;-64
2023/05/11 06:15:11;;;;;;;7.65;4.50;;;;;;;;;;4999106;28;20040;-64
2023/05/11 06:17:38;;;;;;;7.90;4.10;;;;;;;;;;4998907;28;20579;-64
2023/05/11 06:20:05;;;;;;;4.63;3.70;;;;;;;;;;4998980;28;20105;-64
2023/05/11 06:22:30;;;;;;;6.88;3.78;;;;;;;;;;5016514;28;20030;-64
2023/05/11 06:24:56;;;;;;;4.00;3.63;;;;;;;;;;4999267;28;20113;-64
2023/05/11 06:27:22;;;;;;;3.15;2.95;;;;;;;;;;4998893;28;20558;-64
2023/05/11 06:29:52;;;;;;;6.70;3.15;;;;;;;;;;4998906;28;20030;-64
2023/05/11 06:32:17;;;;;;;3.50;3.10;;;;;;;;;;4998794;28;20523;-64
2023/05/11 06:34:43;;;;;;;4.40;3.08;;;;;;;;;;4998720;28;20029;-64
2023/05/11 06:37:09;;;;;;;4.28;3.00;;;;;;;;;;4998637;28;20464;-64
2023/05/11 06:39:36;;;;;;;3.40;3.08;;;;;;;;;;4998520;28;20050;-64
2023/05/11 06:42:01;;;;;;;4.68;3.20;;;;;;;;;;4998649;28;20072;-65
2023/05/11 06:44:27;;;;;;;3.63;2.90;;;;;;;;;;4998606;28;20089;-64
2023/05/11 06:46:53;;;;;;;3.40;3.00;;;;;;;;;;4998502;28;20037;-64
2023/05/11 06:49:18;;;;;;;4.75;3.45;;;;;;;;;;4998523;28;20037;-65
2023/05/11 06:51:43;;;;;;;5.22;3.28;;;;;;;;;;4998248;28;20033;-64
2023/05/11 06:54:09;;;;;;;5.72;3.40;;;;;;;;;;4998326;28;20037;-65
2023/05/11 06:56:36;;;;;;;4.97;3.15;;;;;;;;;;5015910;28;20014;-65
2023/05/11 06:59:01;;;;;;;3.92;3.53;;;;;;;;;;5015794;28;20384;-65
2023/05/11 07:01:27;;;;;;;3.83;3.42;;;;;;;;;;4998294;28;20018;-65
2023/05/11 07:03:55;;;;;;;4.47;3.50;;;;;;;;;;5015789;28;20392;-65
2023/05/11 07:06:20;;;;;;;3.42;3.00;;;;;;;;;;5015755;28;20555;-64
2023/05/11 07:08:46;;;;;;;4.72;3.30;;;;;;;;;;5015681;28;20121;-64
2023/05/11 07:11:12;;;;;;;4.13;2.88;;;;;;;;;;5015614;28;20034;-64
2023/05/11 07:13:37;;;;;;;6.00;2.85;;;;;;;;;;4998113;28;20030;-64
2023/05/11 07:16:03;;;;;;;3.20;2.60;;;;;;;;;;5015598;28;20022;-64
2023/05/11 07:18:28;;;;;;;6.15;3.28;;;;;;;;;;5014099;28;20041;-65
2023/05/11 07:20:53;;;;;;;5.63;3.13;;;;;;;;;;5015507;28;20021;-64
2023/05/11 07:23:19;;;;;;;3.05;2.50;;;;;;;;;;5015460;28;20090;-65
2023/05/11 07:25:44;;;;;;;5.25;2.50;;;;;;;;;;5015395;28;20068;-64
2023/05/11 07:28:09;;;;;;;7.80;2.92;;;;;;;;;;5015321;28;20116;-65
2023/05/11 07:30:35;;;;;;;3.83;2.67;;;;;;;;;;5015322;28;20104;-64
2023/05/11 07:33:01;;;;;;;4.03;2.72;;;;;;;;;;5015310;28;20066;-64
2023/05/11 07:35:26;;;;;;;4.20;2.90;;;;;;;;;;5015136;28;20034;-64
2023/05/11 07:37:52;;;;;;;3.78;2.40;;;;;;;;;;5015063;28;20029;-64
2023/05/11 07:40:17;;;;;;;2.83;2.63;;;;;;;;;;5014955;28;20088;-64
2023/05/11 07:42:42;;;;;;;4.82;2.80;;;;;;;;;;5015116;28;20542;-65
2023/05/11 07:45:08;;;;;;;5.63;2.83;;;;;;;;;;5014906;28;20026;-64
2023/05/11 07:47:33;;;;;;;3.03;2.72;;;;;;;;;;5015002;28;20073;-65
2023/05/11 07:49:59;;;;;;;4.18;2.80;;;;;;;;;;5014982;28;20026;-64
2023/05/11 07:52:24;;;;;;;3.00;2.80;;;;;;;;;;5014891;28;20502;-65
2023/05/11 07:54:49;;;;;;;3.97;2.67;;;;;;;;;;5014794;28;20037;-64
2023/05/11 07:57:15;;;;;;;2.90;2.60;;;;;;;;;;5014772;28;20022;-64
2023/05/11 07:59:40;;;;;;;4.57;3.00;;;;;;;;;;5014756;28;20424;-65
2023/05/11 08:02:07;;;;;;;3.50;2.65;;;;;;;;;;5014513;28;20034;-65
2023/05/11 08:04:32;;;;;;;2.72;2.22;;;;;;;;;;5014286;28;20045;-65
2023/05/11 08:06:57;;;;;;;4.43;2.55;;;;;;;;;;5014627;28;20033;-65
2023/05/11 08:09:22;;;;;;;4.50;2.92;;;;;;;;;;5014597;28;20026;-64
2023/05/11 08:11:48;;;;;;;6.85;2.95;;;;;;;;;;5014511;28;20034;-65
2023/05/11 08:14:14;;;;;;;5.78;2.55;;;;;;;;;;5014461;28;20065;-65
2023/05/11 08:16:40;;;;;;;2.60;2.40;;;;;;;;;;4996897;28;20041;-64
2023/05/11 08:19:05;;;;;;;3.28;2.45;;;;;;;;;;5014227;28;20034;-64
2023/05/11 08:21:31;;;;;;;3.67;2.33;;;;;;;;;;5014334;28;20540;-64
2023/05/11 08:23:57;;;;;;;3.22;2.03;;;;;;;;;;5014280;28;20025;-65
2023/05/11 08:26:22;;;;;;;2.00;1.90;;;;;;;;;;5014254;28;20032;-64
2023/05/11 08:28:47;;;;;;;3.88;2.70;;;;;;;;;;5013009;28;20033;-65
2023/05/11 08:31:13;;;;;;;5.10;2.38;;;;;;;;;;4996756;28;20033;-65
2023/05/11 08:33:38;;;;;;;2.50;2.00;;;;;;;;;;5014128;28;20036;-65
2023/05/11 08:36:03;;;;;;;2.72;2.17;;;;;;;;;;4996495;28;20396;-64
2023/05/11 08:38:29;;;;;;;3.40;2.20;;;;;;;;;;5013969;28;20084;-64
2023/05/11 08:40:54;;;;;;;10.73;2.60;;;;;;;;;;5013878;28;20073;-64
2023/05/11 08:43:21;;;;;;;2.33;2.13;;;;;;;;;;5013988;28;20037;-64
2023/05/11 08:45:47;;;;;;;2.08;1.92;;;;;;;;;;5013902;28;20038;-64
2023/05/11 08:48:17;;;;;;;2.13;2.03;;;;;;;;;;5013992;28;20036;-64
2023/05/11 08:50:46;;;;;;;2.67;2.08;;;;;;;;;;5014002;28;20041;-65
2023/05/11 08:53:11;;;;;;;1.85;1.63;;;;;;;;;;5013846;28;20038;-64
2023/05/11 08:55:37;;;;;;;2.28;1.98;;;;;;;;;;5013777;28;20113;-64
2023/05/11 08:58:04;;;;;;;2.00;1.90;;;;;;;;;;5013724;28;20030;-65
2023/05/11 09:00:30;;;;;;;4.53;1.90;;;;;;;;;;5013688;28;20170;-64
2023/05/11 09:02:56;;;;;;;1.92;1.83;;;;;;;;;;5013745;28;20026;-64
2023/05/11 09:05:22;;;;;;;2.03;1.88;;;;;;;;;;5013952;28;20385;-64
2023/05/11 09:07:51;;;;;;;1.80;1.70;;;;;;;;;;5013564;28;20116;-65
2023/05/11 09:10:16;;;;;;;2.08;1.60;;;;;;;;;;5013675;28;20025;-57
2023/05/11 09:12:42;;;;;;;1.60;1.50;;;;;;;;;;4996056;28;20392;-57
2023/05/11 09:15:07;;;;;;;3.03;1.80;;;;;;;;;;5012664;28;20026;-57
2023/05/11 09:17:32;;;;;;;2.50;2.30;;;;;;;;;;5013613;28;20121;-57
2023/05/11 09:20:01;;;;;;;1.63;1.52;;;;;;;;;;5013586;28;20096;-57
2023/05/11 09:22:26;;;;;;;2.05;1.50;;;;;;;;;;5013478;28;20021;-57
2023/05/11 09:24:51;;;;;;;3.55;1.60;;;;;;;;;;5013470;28;20353;-57
2023/05/11 09:27:17;;;;;;;1.90;1.80;;;;;;;;;;5013499;28;20041;-57
2023/05/11 09:29:42;;;;;;;1.75;1.65;;;;;;;;;;5013608;28;20018;-57
2023/05/11 09:32:07;;;;;;;1.95;1.60;;;;;;;;;;5013419;28;20524;-57
2023/05/11 09:34:33;;;;;;;2.20;1.80;;;;;;;;;;5013399;28;20029;-57
2023/05/11 09:36:58;;;;;;;5.03;1.90;;;;;;;;;;4995843;28;20048;-57
2023/05/11 09:39:27;;;;;;;4.53;1.85;;;;;;;;;;5013139;28;20052;-57
2023/05/11 09:42:09;;;;;;;2.08;1.70;;;;;;;;;;5013375;28;20033;-57
2023/05/11 09:44:35;;;;;;;4.18;1.50;;;;;;;;;;5013381;28;20092;-57
2023/05/11 09:47:09;;;;;;;1.83;1.60;;;;;;;;;;5013301;28;20456;-57
2023/05/11 09:49:34;;;;;;;1.95;1.60;;;;;;;;;;5013324;28;20038;-57
2023/05/11 09:52:00;;;;;;;2.15;1.58;;;;;;;;;;5013255;28;20033;-57
2023/05/11 09:54:25;;;;;;;15.43;3.20;;;;;;;;;;5013220;28;20436;-57
2023/05/11 09:56:55;;;;;;;3.45;1.70;;;;;;;;;;4995678;28;20038;-57
2023/05/11 09:59:36;;;;;;;1.70;1.52;;;;;;;;;;5013190;28;20026;-57
2023/05/11 10:02:21;;;;;;;3.80;1.80;;;;;;;;;;5013211;28;20042;-57
2023/05/11 10:04:47;;;;;;;2.00;1.80;;;;;;;;;;5013126;28;20045;-57
2023/05/11 10:07:41;;;;;;;1.80;1.60;;;;;;;;;;5013154;28;20030;-57
2023/05/11 10:10:07;;;;;;;1.70;1.60;;;;;;;;;;4983246;28;20074;-57
2023/05/11 10:12:36;;;;;;;3.97;1.50;;;;;;;;;;5013126;28;20065;-57
2023/05/11 10:15:06;;;;;;;1.60;1.50;;;;;;;;;;5013077;28;20060;-57
2023/05/11 10:17:32;;;;;;;1.50;1.40;;;;;;;;;;5013205;28;20030;-57
2023/05/11 10:19:58;;;;;;;1.27;1.20;;;;;;;;;;5013026;28;20076;-57
2023/05/11 10:22:23;;;;;;;2.45;1.58;;;;;;;;;;5012967;28;20515;-57
2023/05/11 10:24:49;;;;;;;2.58;1.63;;;;;;;;;;4995367;28;20125;-57
2023/05/11 10:27:14;;;;;;;3.22;1.30;;;;;;;;;;5015529;28;20030;-57
2023/05/11 10:29:41;;;;;;;1.80;1.65;;;;;;;;;;5016494;28;20053;-57
2023/05/11 10:32:06;;;;;;;3.58;1.50;;;;;;;;;;5016403;28;20037;-57
2023/05/11 10:34:32;;;;;;;1.60;1.40;;;;;;;;;;5016343;28;20030;-57
2023/05/11 10:37:01;;;;;;;8.35;2.85;;;;;;;;;;5016383;28;20058;-57
2023/05/11 10:39:27;;;;;;;1.95;1.50;;;;;;;;;;5015988;28;20045;-57
2023/05/11 10:42:11;;;;;;;1.80;1.50;;;;;;;;;;5016220;28;20037;-57
2023/05/11 10:44:49;;;;;;;2.10;1.48;;;;;;;;;;4998516;28;20034;-57
2023/05/11 10:47:17;;;;;;;2.00;1.30;;;;;;;;;;5016118;28;20025;-57
2023/05/11 10:50:01;;;;;;;2.28;1.60;;;;;;;;;;5016138;28;20163;-57
2023/05/11 10:52:35;;;;;;;1.70;1.40;;;;;;;;;;5016026;28;20096;-57
2023/05/11 10:55:08;;;;;;;1.67;1.20;;;;;;;;;;5015952;28;20374;-57
2023/05/11 10:57:53;;;;;;;1.60;1.50;;;;;;;;;;4998381;28;20038;-57
2023/05/11 11:00:42;;;;;;;2.03;1.63;;;;;;;;;;5015895;28;20472;-57
2023/05/11 11:03:11;;;;;;;1.52;1.42;;;;;;;;;;4969661;28;20404;-57
2023/05/11 11:05:37;;;;;;;2.00;1.80;;;;;;;;;;5015789;28;20125;-57
2023/05/11 11:08:03;;;;;;;2.35;1.65;;;;;;;;;;5015793;28;20109;-57
2023/05/11 11:10:29;;;;;;;1.73;1.30;;;;;;;;;;5015872;28;20108;-57
2023/05/11 11:13:01;;;;;;;1.55;1.45;;;;;;;;;;5015642;28;20034;-57
2023/05/11 11:15:46;;;;;;;3.22;1.50;;;;;;;;;;5015570;28;20041;-57
2023/05/11 11:18:22;;;;;;;1.98;1.40;;;;;;;;;;5015259;28;20121;-57
2023/05/11 11:20:48;;;;;;;4.43;1.85;;;;;;;;;;5015472;28;20045;-57
2023/05/11 11:23:32;;;;;;;2.85;1.80;;;;;;;;;;5015484;28;20030;-57
2023/05/11 11:25:58;;;;;;;3.60;1.60;;;;;;;;;;5015422;28;20424;-57
2023/05/11 11:28:23;;;;;;;3.10;2.10;;;;;;;;;;5015310;28;20021;-57
2023/05/11 11:31:08;;;;;;;3.10;1.90;;;;;;;;;;5015245;28;20042;-57
2023/05/11 11:33:34;;;;;;;1.95;1.85;;;;;;;;;;5015089;28;20440;-57
2023/05/11 11:36:00;;;;;;;2.17;1.70;;;;;;;;;;5015242;28;20029;-57
2023/05/11 11:38:25;;;;;;;2.10;2.00;;;;;;;;;;5014180;28;20029;-57
2023/05/11 11:40:51;;;;;;;3.05;1.70;;;;;;;;;;5014915;28;20052;-57
2023/05/11 11:43:23;;;;;;;3.10;2.35;;;;;;;;;;5015116;28;20021;-57
2023/05/11 11:45:49;;;;;;;2.50;2.30;;;;;;;;;;5014941;28;20034;-57
2023/05/11 11:48:15;;;;;;;2.55;2.35;;;;;;;;;;5014988;28;20396;-57
2023/05/11 11:50:44;;;;;;;2.22;2.13;;;;;;;;;;5014954;28;20357;-57
2023/05/11 11:53:10;;;;;;;2.63;1.83;;;;;;;;;;5014769;28;20092;-57
2023/05/11 11:55:48;;;;;;;4.57;2.05;;;;;;;;;;5014790;28;20121;-57
2023/05/11 11:58:34;;;;;;;4.20;2.67;;;;;;;;;;5014764;28;20034;-57
2023/05/11 12:00:59;;;;;;;2.90;2.15;;;;;;;;;;4997117;28;20030;-57
2023/05/11 12:03:24;;;;;;;3.30;2.30;;;;;;;;;;5014681;28;20057;-57
2023/05/11 12:05:52;;;;;;;3.05;2.03;;;;;;;;;;4997040;28;20122;-57
2023/05/11 12:08:18;;;;;;;2.33;2.13;;;;;;;;;;5014595;28;20523;-57
2023/05/11 12:10:45;;;;;;;2.17;2.08;;;;;;;;;;5014525;28;20052;-57
2023/05/11 12:13:11;;;;;;;2.80;2.60;;;;;;;;;;5014419;28;20030;-57
2023/05/11 12:15:36;;;;;;;3.17;2.10;;;;;;;;;;5014545;28;20026;-57
2023/05/11 12:18:03;;;;;;;2.88;2.38;;;;;;;;;;5014386;28;20026;-57
2023/05/11 12:20:28;;;;;;;4.30;2.33;;;;;;;;;;5014288;28;20117;-57
2023/05/11 12:22:53;;;;;;;2.88;2.38;;;;;;;;;;5014446;28;20101;-57
2023/05/11 12:25:19;;;;;;;2.00;1.90;;;;;;;;;;5014302;28;20511;-57
2023/05/11 12:27:49;;;;;;;2.50;2.30;;;;;;;;;;5014338;28;20029;-57
2023/05/11 12:30:30;;;;;;;2.05;1.88;;;;;;;;;;5014592;28;20109;-57
2023/05/11 12:32:56;;;;;;;2.63;2.17;;;;;;;;;;5014181;28;20077;-57
2023/05/11 12:35:31;;;;;;;2.58;2.38;;;;;;;;;;5014115;28;20036;-57
2023/05/11 12:37:58;;;;;;;2.30;2.05;;;;;;;;;;5014057;28;20034;-57
2023/05/11 12:40:23;;;;;;;2.70;2.08;;;;;;;;;;5013912;28;20087;-57
2023/05/11 12:42:56;;;;;;;3.70;1.90;;;;;;;;;;5012679;28;20112;-57
2023/05/11 12:45:23;;;;;;;1.77;1.50;;;;;;;;;;5014233;28;20482;-57
2023/05/11 12:47:49;;;;;;;2.75;1.98;;;;;;;;;;5013929;28;20377;-57
2023/05/11 12:50:15;;;;;;;3.50;2.10;;;;;;;;;;4996270;28;20227;-57
2023/05/11 12:52:41;;;;;;;2.30;1.83;;;;;;;;;;5013844;28;20030;-57
2023/05/11 12:55:06;;;;;;;1.70;1.48;;;;;;;;;;5013862;28;20056;-57
2023/05/11 12:57:32;;;;;;;2.30;1.50;;;;;;;;;;5014619;28;20037;-57
2023/05/11 13:00:12;;;;;;;1.55;1.45;;;;;;;;;;5014136;28;20418;-57
2023/05/11 13:02:48;;;;;;;1.83;1.73;;;;;;;;;;5014396;28;20038;-57
2023/05/11 13:05:14;;;;;;;1.88;1.60;;;;;;;;;;5014058;28;20033;-57
2023/05/11 13:07:39;;;;;;;8.73;1.83;;;;;;;;;;5014297;28;20456;-57
2023/05/11 13:10:05;;;;;;;3.75;1.60;;;;;;;;;;5013994;28;20080;-57
2023/05/11 13:12:31;;;;;;;1.30;1.20;;;;;;;;;;5013886;28;20388;-57
2023/05/11 13:15:23;;;;;;;1.50;1.40;;;;;;;;;;4995916;28;20038;-57
2023/05/11 13:17:56;;;;;;;1.40;1.30;;;;;;;;;;5010997;28;20057;-58
2023/05/11 13:20:25;;;;;;;3.38;1.55;;;;;;;;;;5013709;28;20034;-57
2023/05/11 13:23:00;;;;;;;4.57;1.67;;;;;;;;;;5012954;28;20025;-65
2023/05/11 13:25:26;;;;;;;4.43;1.92;;;;;;;;;;5013273;28;20459;-63
2023/05/11 13:27:51;;;;;;;2.10;1.90;;;;;;;;;;4995758;28;20069;-57
2023/05/11 13:30:17;;;;;;;3.08;1.80;;;;;;;;;;4994334;28;20369;-57
2023/05/11 13:32:42;;;;;;;2.42;1.60;;;;;;;;;;5013049;28;20480;-58
2023/05/11 13:35:07;;;;;;;1.90;1.50;;;;;;;;;;5013441;28;20030;-58
2023/05/11 13:37:33;;;;;;;1.98;1.83;;;;;;;;;;5011884;28;20045;-58
2023/05/11 13:39:59;;;;;;;3.22;1.40;;;;;;;;;;4995145;28;20538;-57
2023/05/11 13:42:24;;;;;;;1.45;1.35;;;;;;;;;;5013524;28;20026;-57
2023/05/11 13:44:50;;;;;;;1.70;1.60;;;;;;;;;;5011927;28;20044;-57
2023/05/11 13:47:15;;;;;;;2.97;1.40;;;;;;;;;;5011422;28;20076;-57
2023/05/11 13:49:41;;;;;;;2.60;1.40;;;;;;;;;;5012370;28;20040;-58
2023/05/11 13:52:06;;;;;;;1.58;1.20;;;;;;;;;;5012464;28;20040;-57
2023/05/11 13:54:32;;;;;;;2.97;1.40;;;;;;;;;;5012194;28;20037;-58
2023/05/11 13:56:57;;;;;;;1.52;1.42;;;;;;;;;;5012398;28;20026;-58
2023/05/11 13:59:23;;;;;;;1.98;1.42;;;;;;;;;;5012361;28;20030;-58
2023/05/11 14:01:48;;;;;;;2.13;2.03;;;;;;;;;;5014969;28;20461;-57
2023/05/11 14:04:14;;;;;;;1.50;1.40;;;;;;;;;;5017797;28;20018;-57
2023/05/11 14:06:39;;;;;;;1.50;1.40;;;;;;;;;;4999389;28;20038;-57
2023/05/11 14:09:04;;;;;;;1.75;1.65;;;;;;;;;;5017104;28;20069;-57
2023/05/11 14:11:30;;;;;;;2.45;2.15;;;;;;;;;;5017206;28;20085;-57
2023/05/11 14:13:55;;;;;;;4.28;2.20;;;;;;;;;;4999544;28;20044;-58
2023/05/11 14:16:20;;;;;;;2.50;2.30;;;;;;;;;;5017273;28;20109;-58
2023/05/11 14:18:47;;;;;;;4.40;1.70;;;;;;;;;;5017154;28;20033;-58
2023/05/11 14:21:12;;;;;;;3.05;2.03;;;;;;;;;;5016931;28;20365;-58
2023/05/11 14:23:37;;;;;;;1.98;1.48;;;;;;;;;;5017132;28;20021;-58
2023/05/11 14:26:03;;;;;;;2.55;1.50;;;;;;;;;;5016864;28;20036;-58
2023/05/11 14:28:29;;;;;;;1.65;1.52;;;;;;;;;;5016282;28;20428;-58
2023/05/11 14:30:55;;;;;;;1.60;1.50;;;;;;;;;;5016750;28;20033;-58
2023/05/11 14:33:20;;;;;;;2.13;1.40;;;;;;;;;;5016597;28;20030;-58
2023/05/11 14:35:46;;;;;;;1.88;1.17;;;;;;;;;;5017002;28;20076;-57
2023/05/11 14:38:12;;;;;;;1.50;1.20;;;;;;;;;;5016013;28;20026;-58
2023/05/11 14:40:37;;;;;;;1.55;1.40;;;;;;;;;;5015683;28;20107;-58
2023/05/11 14:43:03;;;;;;;1.42;1.33;;;;;;;;;;4995873;28;20018;-58